Time;durP1;ratioP1;P1;durP2;ratioP2;P2;SDS_P1;SDS_P2;PMS_P1;PMS_P2;Temp;Humidity;BMP_temperature;BMP_pressure;BME280_temperature;BME280_humidity;BME280_pressure;Samples;Min_cycle;Max_cycle;Signal;HPM_P1;HPM_P2
2021/10/11 00:03:59;;;;;;;7.60;4.78;;;;;;;22.22;46.27;95150.94;4964206;28;20062;-67
2021/10/11 00:06:24;;;;;;;7.55;4.80;;;;;;;22.23;46.23;95147.00;4988814;28;20409;-66
2021/10/11 00:08:50;;;;;;;6.97;4.60;;;;;;;22.22;46.25;95145.50;5000718;28;20022;-66
2021/10/11 00:11:15;;;;;;;7.57;4.72;;;;;;;22.21;46.35;95146.00;5009283;28;20393;-65
2021/10/11 00:13:41;;;;;;;6.45;4.65;;;;;;;22.21;46.38;95144.03;4990172;28;20036;-66
2021/10/11 00:16:06;;;;;;;7.00;4.63;;;;;;;22.20;46.53;95141.78;5007640;28;20025;-66
2021/10/11 00:18:32;;;;;;;6.70;4.47;;;;;;;22.17;46.43;95138.09;5008429;28;20025;-66
2021/10/11 00:20:57;;;;;;;8.00;5.25;;;;;;;22.18;46.40;95134.13;5008535;28;20120;-66
2021/10/11 00:23:23;;;;;;;6.88;5.05;;;;;;;22.18;46.32;95134.13;5025229;28;20037;-66
2021/10/11 00:25:48;;;;;;;6.57;4.57;;;;;;;22.17;46.39;95132.63;5028133;28;20036;-65
2021/10/11 00:28:13;;;;;;;7.45;5.22;;;;;;;22.15;46.33;95124.25;5028443;28;20021;-66
2021/10/11 00:30:39;;;;;;;7.03;4.70;;;;;;;22.13;46.34;95121.25;5011339;28;20021;-65
2021/10/11 00:33:05;;;;;;;6.65;4.47;;;;;;;22.12;46.32;95111.66;5019562;28;20022;-66
2021/10/11 00:35:31;;;;;;;7.55;5.15;;;;;;;22.13;46.42;95115.81;5008616;28;20041;-66
2021/10/11 00:37:57;;;;;;;7.38;4.60;;;;;;;22.10;46.46;95105.94;5005268;28;20404;-66
2021/10/11 00:40:22;;;;;;;7.57;4.78;;;;;;;22.11;46.48;95118.31;5007510;28;20037;-66
2021/10/11 00:42:48;;;;;;;7.47;4.50;;;;;;;22.10;46.52;95108.66;5008049;28;20644;-66
2021/10/11 00:45:13;;;;;;;6.97;4.70;;;;;;;22.10;46.58;95114.09;4990512;28;20507;-66
2021/10/11 00:47:39;;;;;;;7.78;4.97;;;;;;;22.09;46.50;95109.91;5006870;28;20534;-66
2021/10/11 00:50:05;;;;;;;7.55;4.70;;;;;;;22.08;46.54;95108.44;5008325;28;20095;-66
2021/10/11 00:52:30;;;;;;;7.25;4.85;;;;;;;22.07;47.14;95120.53;5007781;28;20022;-65
2021/10/11 00:54:56;;;;;;;6.80;4.47;;;;;;;22.06;46.49;95127.22;5008095;28;20021;-66
2021/10/11 00:57:21;;;;;;;7.13;4.50;;;;;;;22.06;46.73;95116.34;5008204;28;20030;-66
2021/10/11 00:59:46;;;;;;;6.50;4.28;;;;;;;22.05;46.54;95109.44;5006197;28;20057;-66
2021/10/11 01:02:12;;;;;;;6.40;4.28;;;;;;;22.03;46.51;95114.63;5007972;28;20033;-66
2021/10/11 01:04:37;;;;;;;7.15;4.63;;;;;;;22.04;46.58;95107.94;5006853;28;20026;-66
2021/10/11 01:07:03;;;;;;;6.53;4.47;;;;;;;22.04;46.51;95096.31;5006667;28;20531;-66
2021/10/11 01:09:28;;;;;;;7.65;4.70;;;;;;;22.02;46.68;95096.81;5007081;28;20032;-66
2021/10/11 01:11:54;;;;;;;6.05;4.43;;;;;;;22.02;46.55;95099.53;5007846;28;20073;-66
2021/10/11 01:14:19;;;;;;;6.70;4.47;;;;;;;22.01;46.71;95087.19;5007565;28;20030;-66
2021/10/11 01:16:45;;;;;;;6.82;4.70;;;;;;;22.01;46.64;95086.44;5007997;28;20021;-66
2021/10/11 01:19:11;;;;;;;7.03;4.78;;;;;;;21.96;46.64;95079.78;5006260;28;20014;-67
2021/10/11 01:21:36;;;;;;;7.40;4.63;;;;;;;21.99;46.63;95084.22;5008072;28;20563;-66
2021/10/11 01:24:02;;;;;;;6.90;4.28;;;;;;;21.99;46.71;95084.22;5006116;28;20484;-65
2021/10/11 01:26:41;;;;;;;7.15;4.60;;;;;;;21.98;46.79;95077.28;5007592;28;20109;-66
2021/10/11 01:29:07;;;;;;;7.18;4.63;;;;;;;21.99;46.87;95072.63;4998602;28;20022;-65
2021/10/11 01:31:33;;;;;;;6.63;4.55;;;;;;;21.95;46.72;95078.28;5008023;28;20805;-65
2021/10/11 01:33:59;;;;;;;6.88;4.63;;;;;;;21.96;46.83;95077.06;5006812;28;20037;-66
2021/10/11 01:36:24;;;;;;;7.13;4.75;;;;;;;21.97;46.74;95078.56;5006465;28;20115;-66
2021/10/11 01:38:55;;;;;;;6.60;4.35;;;;;;;21.97;46.76;95070.41;5007263;28;20452;-66
2021/10/11 01:41:21;;;;;;;7.20;4.65;;;;;;;21.94;46.78;95073.34;5006706;28;20108;-66
2021/10/11 01:43:46;;;;;;;7.53;4.47;;;;;;;21.96;46.86;95077.06;5022843;28;20029;-65
2021/10/11 01:46:11;;;;;;;6.18;4.18;;;;;;;21.96;46.72;95079.06;5006097;28;20044;-66
2021/10/11 01:48:37;;;;;;;6.95;4.18;;;;;;;21.92;46.97;95072.38;5006587;28;20416;-65
2021/10/11 01:51:03;;;;;;;6.47;4.40;;;;;;;21.92;46.89;95077.81;5006773;28;20030;-65
2021/10/11 01:53:28;;;;;;;7.25;4.57;;;;;;;21.93;46.84;95072.63;5006253;28;20853;-67
2021/10/11 01:55:53;;;;;;;6.28;4.40;;;;;;;21.93;46.76;95064.47;5006838;28;20018;-65
2021/10/11 01:58:19;;;;;;;6.97;4.50;;;;;;;21.92;46.83;95065.69;5004996;28;20037;-65
2021/10/11 02:00:44;;;;;;;6.20;4.15;;;;;;;21.92;46.69;95068.41;5007552;28;20030;-65
2021/10/11 02:03:10;;;;;;;6.63;4.53;;;;;;;21.91;46.79;95066.19;5006212;28;20045;-66
2021/10/11 02:05:35;;;;;;;6.53;4.40;;;;;;;21.91;46.86;95063.47;5006968;28;20022;-66
2021/10/11 02:08:01;;;;;;;7.40;4.30;;;;;;;21.89;46.95;95062.50;5005256;28;20149;-66
2021/10/11 02:10:26;;;;;;;7.38;4.50;;;;;;;21.91;46.83;95062.75;5007138;28;20028;-65
2021/10/11 02:12:52;;;;;;;7.20;4.00;;;;;;;21.91;46.79;95060.03;5005030;28;20072;-65
2021/10/11 02:15:17;;;;;;;6.63;4.07;;;;;;;21.90;47.01;95064.72;5006962;28;20018;-67
2021/10/11 02:17:43;;;;;;;6.68;4.38;;;;;;;21.90;46.96;95063.97;5004534;28;20096;-66
2021/10/11 02:20:09;;;;;;;6.30;4.07;;;;;;;21.89;46.84;95065.22;5006198;28;20246;-66
2021/10/11 02:22:34;;;;;;;6.15;4.15;;;;;;;21.88;46.99;95056.31;5005252;28;20121;-66
2021/10/11 02:25:00;;;;;;;5.47;4.07;;;;;;;21.88;46.92;95050.88;5005739;28;20038;-66
2021/10/11 02:27:25;;;;;;;7.00;4.50;;;;;;;21.89;46.86;95046.19;5007020;28;20022;-66
2021/10/11 02:29:50;;;;;;;7.22;4.40;;;;;;;21.87;46.91;95043.22;4987909;28;20033;-65
2021/10/11 02:32:16;;;;;;;7.15;4.50;;;;;;;21.87;46.89;95043.22;5004338;28;20025;-66
2021/10/11 02:34:41;;;;;;;5.72;3.95;;;;;;;21.86;46.92;95041.75;5004755;28;20095;-65
2021/10/11 02:37:07;;;;;;;5.85;3.63;;;;;;;21.82;47.01;95041.25;5006563;28;20025;-66
2021/10/11 02:39:32;;;;;;;5.75;4.13;;;;;;;21.86;46.88;95030.88;4986983;28;20022;-66
2021/10/11 02:41:57;;;;;;;5.68;3.90;;;;;;;21.84;46.90;95034.09;5004824;28;20041;-66
2021/10/11 02:44:23;;;;;;;5.47;3.63;;;;;;;21.83;46.84;95029.16;5005887;28;20032;-65
2021/10/11 02:46:49;;;;;;;5.82;3.97;;;;;;;21.83;46.97;95037.31;5005064;28;20057;-65
2021/10/11 02:49:14;;;;;;;5.78;3.90;;;;;;;21.83;46.96;95029.16;5006364;28;20048;-65
2021/10/11 02:51:39;;;;;;;5.72;3.53;;;;;;;21.83;47.01;95026.44;5006317;28;20033;-66
2021/10/11 02:54:05;;;;;;;5.15;3.75;;;;;;;21.81;46.89;95028.91;5005458;28;20025;-66
2021/10/11 02:56:30;;;;;;;4.57;3.50;;;;;;;21.81;46.98;95031.63;5006172;28;20032;-66
2021/10/11 02:58:56;;;;;;;5.25;3.72;;;;;;;21.82;46.91;95030.38;5003515;28;20699;-66
2021/10/11 03:01:21;;;;;;;4.95;3.60;;;;;;;21.82;47.04;95035.81;4988256;28;20487;-65
2021/10/11 03:03:47;;;;;;;5.97;4.03;;;;;;;21.80;47.04;95027.44;5005256;28;20050;-65
2021/10/11 03:06:12;;;;;;;5.80;3.72;;;;;;;21.79;47.11;95028.66;5004917;28;20038;-65
2021/10/11 03:08:38;;;;;;;4.50;3.47;;;;;;;21.79;46.95;95020.50;5005939;28;20840;-66
2021/10/11 03:11:03;;;;;;;5.40;3.55;;;;;;;21.79;47.03;95025.94;5005565;28;20041;-66
2021/10/11 03:13:29;;;;;;;5.28;3.63;;;;;;;21.78;46.73;95019.03;5004209;28;20036;-65
2021/10/11 03:15:54;;;;;;;5.38;3.47;;;;;;;21.78;46.96;95019.03;5005685;28;20033;-65
2021/10/11 03:18:20;;;;;;;5.53;3.63;;;;;;;21.77;47.00;95014.84;5023369;28;20029;-66
2021/10/11 03:20:45;;;;;;;5.95;3.63;;;;;;;21.76;47.09;95013.34;5024943;28;20026;-66
2021/10/11 03:23:11;;;;;;;6.50;4.32;;;;;;;21.77;47.07;95007.41;5024080;28;20531;-66
2021/10/11 03:25:36;;;;;;;5.00;3.35;;;;;;;21.77;46.96;95004.69;5012210;28;20025;-66
2021/10/11 03:28:02;;;;;;;5.30;3.50;;;;;;;21.78;47.06;95008.16;5005806;28;20080;-66
2021/10/11 03:30:27;;;;;;;4.78;3.35;;;;;;;21.77;47.04;95001.25;5003573;28;20121;-66
2021/10/11 03:32:53;;;;;;;5.60;3.67;;;;;;;21.78;47.07;94997.28;5005422;28;20046;-67
2021/10/11 03:35:20;;;;;;;5.10;3.50;;;;;;;21.75;47.05;94988.16;5004629;28;20072;-67
2021/10/11 03:37:45;;;;;;;5.20;3.55;;;;;;;21.75;47.17;95001.00;5006198;28;20026;-66
2021/10/11 03:40:11;;;;;;;5.03;3.40;;;;;;;21.74;47.03;95002.25;5004611;28;20026;-66
2021/10/11 03:42:36;;;;;;;5.18;3.42;;;;;;;21.74;47.31;94988.66;5005942;28;20117;-66
2021/10/11 03:45:02;;;;;;;5.80;3.53;;;;;;;21.74;46.91;94991.38;5003573;28;20034;-65
2021/10/11 03:47:27;;;;;;;5.57;3.35;;;;;;;21.73;47.00;94989.88;5004824;28;20037;-67
2021/10/11 03:49:53;;;;;;;4.60;3.15;;;;;;;21.73;47.17;94984.44;5003413;28;20121;-66
2021/10/11 03:52:18;;;;;;;5.25;3.05;;;;;;;21.69;47.18;94973.13;5005907;28;20132;-66
2021/10/11 03:54:44;;;;;;;4.70;3.30;;;;;;;21.72;47.12;94977.53;5004329;28;20026;-66
2021/10/11 03:57:09;;;;;;;5.13;3.53;;;;;;;21.71;47.14;94976.06;5005421;28;20827;-67
2021/10/11 03:59:35;;;;;;;4.43;3.30;;;;;;;21.70;47.07;94980.78;5004499;28;20453;-66
2021/10/11 04:02:01;;;;;;;4.45;3.25;;;;;;;21.71;47.17;94981.50;5004781;28;20033;-66
2021/10/11 04:04:26;;;;;;;5.07;3.60;;;;;;;21.70;47.22;94974.59;5004056;28;20058;-67
2021/10/11 04:06:54;;;;;;;4.70;3.50;;;;;;;21.70;47.23;94969.16;5004168;28;20033;-66
2021/10/11 04:09:26;;;;;;;5.05;3.30;;;;;;;21.66;47.25;94965.97;5004305;28;20044;-66
2021/10/11 04:11:52;;;;;;;4.53;3.17;;;;;;;21.69;47.14;94967.69;5003767;28;20034;-66
2021/10/11 04:14:18;;;;;;;4.55;3.03;;;;;;;21.68;47.01;94971.63;5005013;28;20037;-65
2021/10/11 04:16:43;;;;;;;5.50;3.60;;;;;;;21.66;47.04;94957.81;5003555;28;20029;-66
2021/10/11 04:19:08;;;;;;;4.75;3.13;;;;;;;21.68;47.17;94960.75;5005280;28;20034;-66
2021/10/11 04:21:34;;;;;;;5.22;3.50;;;;;;;21.67;47.18;94964.72;5004605;28;20026;-66
2021/10/11 04:23:59;;;;;;;5.18;3.30;;;;;;;21.66;47.21;94958.53;5005835;28;20025;-66
2021/10/11 04:26:25;;;;;;;4.70;2.88;;;;;;;21.66;47.09;94955.09;5004119;28;20420;-66
2021/10/11 04:28:50;;;;;;;4.30;3.00;;;;;;;21.64;47.21;94954.84;5005187;28;20032;-66
2021/10/11 04:31:16;;;;;;;4.25;3.08;;;;;;;21.67;47.23;94959.28;5003785;28;20030;-66
2021/10/11 04:33:41;;;;;;;4.57;3.05;;;;;;;21.63;47.25;94942.50;5005289;28;20091;-66
2021/10/11 04:36:07;;;;;;;4.63;2.97;;;;;;;21.65;47.27;94956.31;5004221;28;20126;-66
2021/10/11 04:38:32;;;;;;;4.30;2.85;;;;;;;21.66;47.11;94952.38;4986637;28;20026;-67
2021/10/11 04:40:58;;;;;;;4.57;2.90;;;;;;;21.63;46.96;94942.50;5004319;28;20034;-66
2021/10/11 04:43:23;;;;;;;4.45;3.05;;;;;;;21.65;46.89;94940.00;5007164;28;20087;-67
2021/10/11 04:45:48;;;;;;;4.50;3.08;;;;;;;21.63;47.18;94947.94;5006763;28;20036;-66
2021/10/11 04:48:14;;;;;;;4.03;2.60;;;;;;;21.67;46.33;94943.72;5006256;28;20080;-66
2021/10/11 04:50:39;;;;;;;4.22;3.08;;;;;;;21.65;47.07;94956.31;5012251;28;20715;-64
2021/10/11 04:53:05;;;;;;;5.15;2.90;;;;;;;21.66;47.17;94952.38;5021972;28;20030;-63
2021/10/11 04:55:31;;;;;;;4.53;2.88;;;;;;;21.67;47.21;94948.41;5009156;28;20037;-64
2021/10/11 04:57:56;;;;;;;4.10;2.70;;;;;;;21.71;47.18;94944.19;5027628;28;20034;-63
2021/10/11 05:00:22;;;;;;;4.20;2.78;;;;;;;21.70;47.51;94947.41;5025485;28;20029;-63
2021/10/11 05:02:47;;;;;;;4.13;2.70;;;;;;;21.78;47.12;94943.69;5026403;28;20511;-64
2021/10/11 05:05:13;;;;;;;3.53;2.30;;;;;;;21.87;47.01;94940.69;5008149;28;20056;-63
2021/10/11 05:07:38;;;;;;;4.18;2.72;;;;;;;21.95;46.78;94950.50;5027657;28;20018;-64
2021/10/11 05:10:04;;;;;;;3.58;2.50;;;;;;;22.02;46.65;94941.84;5004687;28;20025;-65
2021/10/11 05:12:29;;;;;;;4.53;2.40;;;;;;;22.11;46.44;94943.53;5025394;28;20116;-65
2021/10/11 05:14:55;;;;;;;3.97;2.75;;;;;;;22.24;46.38;94941.75;5026590;28;20028;-65
2021/10/11 05:17:20;;;;;;;3.53;2.60;;;;;;;22.33;46.31;94938.75;5026919;28;20029;-64
2021/10/11 05:19:46;;;;;;;4.00;2.50;;;;;;;22.43;45.88;94942.63;5027148;28;20108;-64
2021/10/11 05:22:11;;;;;;;3.47;2.20;;;;;;;22.53;45.65;94947.25;5023800;28;20014;-64
2021/10/11 05:24:37;;;;;;;3.33;2.20;;;;;;;22.62;45.36;94943.50;5007710;28;20018;-64
2021/10/11 05:27:02;;;;;;;3.10;2.40;;;;;;;22.73;45.15;94943.41;5023702;28;20791;-65
2021/10/11 05:29:28;;;;;;;3.47;2.35;;;;;;;22.83;44.98;94944.56;5002834;28;20033;-65
2021/10/11 05:31:53;;;;;;;3.65;2.42;;;;;;;22.91;44.86;94938.81;5023091;28;20025;-64
2021/10/11 05:34:19;;;;;;;3.40;2.30;;;;;;;23.02;44.71;94944.19;5005315;28;20037;-64
2021/10/11 05:36:45;;;;;;;5.68;2.35;;;;;;;23.09;44.50;94940.91;5007573;28;20471;-64
2021/10/11 05:39:10;;;;;;;3.78;2.70;;;;;;;23.18;44.84;94943.28;5004020;28;20518;-65
2021/10/11 05:41:36;;;;;;;4.60;2.30;;;;;;;23.24;44.37;94943.97;5014196;28;20068;-64
2021/10/11 05:44:01;;;;;;;8.77;5.57;;;;;;;23.34;44.20;94942.41;5022897;28;20052;-65
2021/10/11 05:46:26;;;;;;;11.95;7.13;;;;;;;23.44;44.17;94946.28;5022313;28;20032;-67
2021/10/11 05:48:52;;;;;;;16.92;10.07;;;;;;;23.53;43.79;94948.66;5023475;28;20025;-66
2021/10/11 05:51:17;;;;;;;16.27;10.48;;;;;;;23.59;43.79;94935.72;5020550;28;20025;-67
2021/10/11 05:53:43;;;;;;;15.20;9.70;;;;;;;23.62;44.10;94940.88;5006774;28;20026;-64
2021/10/11 05:56:08;;;;;;;15.18;9.18;;;;;;;23.70;43.58;94947.25;5019372;28;20033;-65
2021/10/11 05:58:34;;;;;;;14.73;9.38;;;;;;;23.78;43.53;94941.94;5024735;28;20037;-65
2021/10/11 06:00:59;;;;;;;15.38;9.00;;;;;;;23.82;43.84;94948.59;5022774;28;20026;-65
2021/10/11 06:03:25;;;;;;;13.55;8.32;;;;;;;23.87;43.11;94943.09;5022059;28;20602;-67
2021/10/11 06:05:52;;;;;;;13.57;8.18;;;;;;;23.90;43.63;94947.50;5013157;28;20026;-66
2021/10/11 06:08:18;;;;;;;13.60;8.40;;;;;;;23.97;42.86;94949.63;5016158;28;20024;-68
2021/10/11 06:10:43;;;;;;;12.95;8.40;;;;;;;24.05;43.38;94961.47;5023196;28;20021;-67
2021/10/11 06:13:09;;;;;;;12.77;8.18;;;;;;;24.09;42.80;94959.16;5021138;28;20024;-66
2021/10/11 06:15:34;;;;;;;11.48;7.32;;;;;;;24.12;43.19;94955.41;5023812;28;20022;-68
2021/10/11 06:18:00;;;;;;;13.43;8.00;;;;;;;24.24;43.05;94950.56;5022668;28;20112;-68
2021/10/11 06:20:25;;;;;;;12.15;7.50;;;;;;;24.25;42.54;94958.22;5024002;28;20036;-68
2021/10/11 06:22:51;;;;;;;11.60;7.50;;;;;;;24.28;42.86;94951.72;5023840;28;20029;-65
2021/10/11 06:25:16;;;;;;;11.10;7.60;;;;;;;24.30;42.34;94943.75;4989541;28;20476;-69
2021/10/11 06:27:41;;;;;;;13.00;8.20;;;;;;;24.35;42.29;94951.19;5006362;28;20029;-66
2021/10/11 06:30:07;;;;;;;10.57;6.75;;;;;;;24.38;42.35;94950.16;5006415;28;20025;-68
2021/10/11 06:32:33;;;;;;;10.15;6.78;;;;;;;24.41;42.24;94955.31;5018023;28;20476;-67
2021/10/11 06:34:58;;;;;;;10.48;6.70;;;;;;;24.42;42.52;94959.53;5023154;28;20036;-66
2021/10/11 06:37:23;;;;;;;10.43;6.55;;;;;;;24.51;42.20;94952.94;5023619;28;20033;-67
2021/10/11 06:39:49;;;;;;;10.82;6.65;;;;;;;24.57;42.46;94957.06;5011241;28;20709;-67
2021/10/11 06:42:14;;;;;;;11.02;6.80;;;;;;;24.57;42.46;94956.31;5001869;28;20045;-68
2021/10/11 06:44:40;;;;;;;9.60;6.13;;;;;;;24.64;41.72;94955.72;5023111;28;20497;-67
2021/10/11 06:47:05;;;;;;;11.10;6.38;;;;;;;24.66;42.27;94964.13;5022667;28;20559;-68
2021/10/11 06:49:31;;;;;;;9.63;6.05;;;;;;;24.62;41.79;94952.75;5017222;28;20014;-67
2021/10/11 06:51:56;;;;;;;10.80;6.32;;;;;;;24.65;42.33;94946.25;5019169;28;20025;-68
2021/10/11 06:54:22;;;;;;;9.95;6.30;;;;;;;24.63;41.74;94951.50;5004303;28;20415;-68
2021/10/11 06:56:47;;;;;;;9.50;6.75;;;;;;;24.60;42.51;94947.09;5021899;28;20416;-68
2021/10/11 06:59:13;;;;;;;11.45;6.50;;;;;;;24.58;42.22;94949.59;5026059;28;20029;-68
2021/10/11 07:01:38;;;;;;;11.05;6.80;;;;;;;24.50;42.46;94948.75;5023428;28;20522;-68
2021/10/11 07:04:04;;;;;;;9.20;5.90;;;;;;;24.48;42.46;94943.03;5000128;28;20053;-67
2021/10/11 07:06:29;;;;;;;10.57;6.30;;;;;;;24.49;42.13;94952.72;5003742;28;20467;-68
2021/10/11 07:08:54;;;;;;;9.80;5.85;;;;;;;24.42;42.30;94956.03;5005040;28;20022;-68
2021/10/11 07:11:20;;;;;;;9.70;6.20;;;;;;;24.35;42.55;94940.25;4990282;28;20025;-67
2021/10/11 07:13:45;;;;;;;9.82;6.07;;;;;;;24.30;42.93;94948.50;4996980;28;20034;-68
2021/10/11 07:16:11;;;;;;;7.72;5.53;;;;;;;24.21;43.01;94941.41;5003039;28;20017;-67
2021/10/11 07:18:37;;;;;;;8.65;5.80;;;;;;;24.16;43.11;94944.94;5001630;28;20030;-68
2021/10/11 07:21:06;;;;;;;9.50;6.18;;;;;;;24.18;42.84;94942.44;5018920;28;20748;-68
2021/10/11 07:23:32;;;;;;;9.82;6.40;;;;;;;24.13;43.04;94940.53;4999596;28;20026;-67
2021/10/11 07:25:58;;;;;;;9.13;5.80;;;;;;;24.12;42.91;94944.50;5000670;28;20021;-67
2021/10/11 07:28:24;;;;;;;9.70;5.90;;;;;;;24.04;43.60;94959.97;5002032;28;20025;-68
2021/10/11 07:30:49;;;;;;;8.98;5.32;;;;;;;24.01;43.51;94944.63;5003392;28;20493;-68
2021/10/11 07:33:14;;;;;;;10.50;6.03;;;;;;;23.96;43.60;94942.72;4990503;28;20042;-68
2021/10/11 07:35:40;;;;;;;9.05;5.78;;;;;;;23.95;43.57;94940.50;4988040;28;20068;-67
2021/10/11 07:38:05;;;;;;;9.57;6.20;;;;;;;23.91;43.99;94948.97;4999790;28;20044;-68
2021/10/11 07:40:31;;;;;;;8.82;5.38;;;;;;;23.86;43.68;94938.88;5002538;28;20024;-67
2021/10/11 07:42:57;;;;;;;9.30;5.68;;;;;;;23.83;43.61;94938.44;5004051;28;20026;-67
2021/10/11 07:45:22;;;;;;;7.95;5.35;;;;;;;23.82;44.01;94942.41;5002404;28;20026;-68
2021/10/11 07:47:48;;;;;;;8.18;5.45;;;;;;;23.82;43.58;94936.94;5003597;28;20014;-68
2021/10/11 07:50:14;;;;;;;8.93;6.28;;;;;;;23.81;43.88;94935.47;5003744;28;20022;-67
2021/10/11 07:52:39;;;;;;;8.90;5.82;;;;;;;23.77;44.21;94943.22;5002923;28;20552;-67
2021/10/11 07:55:05;;;;;;;9.38;6.25;;;;;;;23.73;43.76;94948.22;5003495;28;20214;-67
2021/10/11 07:57:33;;;;;;;8.25;5.75;;;;;;;23.72;43.85;94938.53;5004462;28;20018;-67
2021/10/11 08:00:03;;;;;;;10.48;6.82;;;;;;;23.71;43.83;94942.53;5001835;28;20026;-66
2021/10/11 08:02:28;;;;;;;10.15;5.75;;;;;;;23.68;44.18;94932.66;5004008;28;20044;-68
2021/10/11 08:04:53;;;;;;;8.65;6.00;;;;;;;23.70;43.84;94936.34;5005344;28;20431;-70
2021/10/11 08:07:19;;;;;;;7.90;5.13;;;;;;;23.70;44.06;94935.59;5024767;28;20266;-68
2021/10/11 08:09:44;;;;;;;10.00;6.20;;;;;;;23.65;44.17;94930.97;5011934;28;20489;-67
2021/10/11 08:12:10;;;;;;;9.00;5.55;;;;;;;23.65;44.45;94928.22;5001974;28;20033;-67
2021/10/11 08:14:36;;;;;;;8.95;5.85;;;;;;;23.62;44.33;94924.50;5003964;28;20022;-67
2021/10/11 08:17:01;;;;;;;9.63;6.13;;;;;;;23.61;44.03;94927.75;5005943;28;20033;-67
2021/10/11 08:19:27;;;;;;;6.45;3.90;;;;;;;23.63;43.99;94930.69;5007565;28;20026;-67
2021/10/11 08:21:52;;;;;;;7.40;3.58;;;;;;;23.36;43.36;94928.25;5007290;28;20026;-69
2021/10/11 08:24:18;;;;;;;7.47;4.43;;;;;;;23.34;44.35;94928.78;4991690;28;20060;-68
2021/10/11 08:26:43;;;;;;;9.02;5.45;;;;;;;23.37;44.41;94930.47;5006951;28;20096;-68
2021/10/11 08:29:09;;;;;;;9.35;5.30;;;;;;;23.39;44.55;94925.25;5008293;28;20029;-68
2021/10/11 08:31:34;;;;;;;8.88;5.80;;;;;;;23.42;44.40;94921.50;5007450;28;20681;-68
2021/10/11 08:33:59;;;;;;;9.32;5.80;;;;;;;23.43;45.01;94928.44;5008597;28;20739;-68
2021/10/11 08:36:25;;;;;;;11.85;6.13;;;;;;;23.39;44.42;94919.78;5007299;28;20022;-68
2021/10/11 08:38:50;;;;;;;8.95;5.72;;;;;;;23.40;44.74;94919.28;5007803;28;20034;-69
2021/10/11 08:41:16;;;;;;;10.43;6.55;;;;;;;23.41;45.04;94926.22;5006962;28;20026;-68
2021/10/11 08:43:41;;;;;;;9.50;5.80;;;;;;;23.41;44.80;94925.50;5017248;28;20079;-66
2021/10/11 08:46:07;;;;;;;10.32;5.70;;;;;;;23.41;44.55;94920.78;5021873;28;20060;-62
2021/10/11 08:48:33;;;;;;;9.88;5.75;;;;;;;23.42;44.69;94913.31;5024084;28;20022;-69
2021/10/11 08:50:59;;;;;;;9.93;5.82;;;;;;;23.40;44.57;94924.00;5026616;28;20537;-69
2021/10/11 08:53:24;;;;;;;10.05;6.00;;;;;;;23.38;45.13;94921.06;4992741;28;20119;-68
2021/10/11 08:55:50;;;;;;;9.43;5.05;;;;;;;23.37;44.64;94913.41;5008047;28;20064;-68
2021/10/11 08:58:15;;;;;;;15.00;5.70;;;;;;;23.41;45.08;94925.50;5008136;28;20053;-69
2021/10/11 09:00:41;;;;;;;9.27;5.70;;;;;;;23.42;44.86;94921.50;4974258;28;20443;-69
2021/10/11 09:03:07;;;;;;;9.63;6.00;;;;;;;23.40;44.62;94910.38;4989597;28;20050;-65
2021/10/11 09:05:40;;;;;;;9.35;6.00;;;;;;;23.37;44.81;94914.84;5006439;28;20034;-68
2021/10/11 09:08:14;;;;;;;10.13;6.20;;;;;;;23.40;44.79;94918.56;5008189;28;20025;-68
2021/10/11 09:10:52;;;;;;;10.27;6.15;;;;;;;23.41;44.72;94926.22;4989267;28;20050;-69
2021/10/11 09:13:19;;;;;;;9.07;5.75;;;;;;;23.41;44.88;94922.75;5007128;28;20017;-66
2021/10/11 09:15:45;;;;;;;10.75;6.43;;;;;;;23.44;44.92;94924.47;5006978;28;20083;-66
2021/10/11 09:18:12;;;;;;;10.07;6.68;;;;;;;23.45;44.91;94920.47;5006011;28;20026;-68
2021/10/11 09:20:39;;;;;;;10.23;6.40;;;;;;;23.39;45.26;94917.81;5006061;28;20050;-68
2021/10/11 09:23:05;;;;;;;10.95;6.63;;;;;;;23.42;44.96;94927.69;5005990;28;20026;-68
2021/10/11 09:25:40;;;;;;;9.60;6.03;;;;;;;23.42;45.17;94916.03;4990092;28;20550;-67
2021/10/11 09:28:06;;;;;;;9.93;6.00;;;;;;;23.36;44.68;94907.19;4988263;28;20018;-67
2021/10/11 09:30:35;;;;;;;10.40;6.03;;;;;;;23.41;44.56;94920.03;5007599;28;20480;-68
2021/10/11 09:33:14;;;;;;;9.35;5.95;;;;;;;23.44;44.75;94919.00;5006743;28;20049;-68
2021/10/11 09:35:40;;;;;;;9.65;6.28;;;;;;;23.42;44.62;94907.88;5006831;28;20099;-68
2021/10/11 09:38:18;;;;;;;9.48;6.50;;;;;;;23.44;44.87;94908.13;5004116;28;20037;-67
2021/10/11 09:40:43;;;;;;;9.55;6.30;;;;;;;23.45;44.94;94904.13;5007328;28;20635;-67
2021/10/11 09:43:17;;;;;;;10.15;6.28;;;;;;;23.45;44.92;94904.13;5006524;28;20065;-67
2021/10/11 09:45:42;;;;;;;9.63;5.90;;;;;;;23.45;44.58;94898.66;4988562;28;20033;-67
2021/10/11 09:48:08;;;;;;;10.98;6.18;;;;;;;23.45;44.98;94904.88;5006569;28;20030;-67
2021/10/11 09:50:33;;;;;;;11.73;6.45;;;;;;;23.44;44.70;94903.41;5007240;28;20045;-67
2021/10/11 09:52:59;;;;;;;11.82;6.57;;;;;;;23.43;44.50;94907.34;5007107;28;20058;-67
2021/10/11 09:55:24;;;;;;;10.95;6.22;;;;;;;23.44;44.95;94892.50;5006036;28;20580;-67
2021/10/11 09:57:50;;;;;;;9.25;5.95;;;;;;;23.44;44.54;94886.31;5007198;28;20038;-68
2021/10/11 10:00:16;;;;;;;9.68;5.90;;;;;;;23.44;44.39;94881.59;4987371;28;20026;-67
2021/10/11 10:02:42;;;;;;;8.98;5.95;;;;;;;23.44;45.00;94886.31;5006821;28;20053;-67
2021/10/11 10:05:27;;;;;;;13.35;6.45;;;;;;;23.39;44.51;94884.38;4986751;28;20037;-67
2021/10/11 10:07:53;;;;;;;10.05;5.90;;;;;;;23.45;44.71;94893.22;4991916;28;20370;-67
2021/10/11 10:10:20;;;;;;;8.68;5.20;;;;;;;23.44;44.57;94889.03;4987297;28;20022;-67
2021/10/11 10:12:46;;;;;;;9.43;6.10;;;;;;;23.44;44.68;94883.59;5007109;28;20091;-68
2021/10/11 10:15:11;;;;;;;10.00;6.10;;;;;;;23.46;44.94;94878.34;5005589;28;20121;-67
2021/10/11 10:17:37;;;;;;;8.88;5.72;;;;;;;23.45;44.35;94893.22;5005327;28;20121;-67
2021/10/11 10:20:04;;;;;;;9.10;5.57;;;;;;;23.45;44.34;94887.78;5006503;28;20022;-68
2021/10/11 10:22:29;;;;;;;8.75;5.60;;;;;;;23.43;44.38;94879.38;5005330;28;20030;-67
2021/10/11 10:25:04;;;;;;;9.75;5.72;;;;;;;23.42;44.46;94883.34;5006490;28;20026;-67
2021/10/11 10:27:34;;;;;;;9.68;5.43;;;;;;;23.44;44.33;94880.88;5005989;28;20030;-67
2021/10/11 10:29:59;;;;;;;8.20;5.43;;;;;;;23.42;44.75;94873.19;4986376;28;20372;-67
2021/10/11 10:32:25;;;;;;;8.10;5.07;;;;;;;23.43;44.73;94879.38;4988161;28;20030;-67
2021/10/11 10:35:00;;;;;;;8.57;5.50;;;;;;;23.44;44.57;94869.97;5004856;28;20534;-67
2021/10/11 10:37:36;;;;;;;9.18;5.70;;;;;;;23.44;44.54;94869.97;5006189;28;20113;-68
2021/10/11 10:40:09;;;;;;;7.68;5.05;;;;;;;23.44;44.26;94872.69;5004256;28;20029;-67
2021/10/11 10:42:34;;;;;;;8.15;5.28;;;;;;;23.45;44.55;94860.50;5006657;28;20025;-67
2021/10/11 10:45:00;;;;;;;9.20;5.53;;;;;;;23.45;44.27;94860.50;5005298;28;20088;-67
2021/10/11 10:47:40;;;;;;;8.02;4.97;;;;;;;23.46;44.12;94845.66;5006785;28;20032;-68
2021/10/11 10:50:20;;;;;;;8.02;5.10;;;;;;;23.45;44.25;94860.50;4986152;28;20030;-67
2021/10/11 10:52:49;;;;;;;8.00;4.95;;;;;;;23.45;44.65;94844.91;4985111;28;20072;-67
2021/10/11 10:55:15;;;;;;;18.02;6.72;;;;;;;23.48;44.14;94843.91;4987132;28;20543;-68
2021/10/11 10:57:40;;;;;;;10.23;5.47;;;;;;;23.48;44.27;94848.59;4987647;28;20022;-67
2021/10/11 11:00:13;;;;;;;9.60;4.78;;;;;;;23.51;44.48;94842.09;5005051;28;20409;-67
2021/10/11 11:02:49;;;;;;;11.07;5.13;;;;;;;23.54;44.43;94838.34;5004988;28;20054;-67
2021/10/11 11:05:15;;;;;;;7.30;4.68;;;;;;;23.53;44.55;94840.34;5006280;28;20451;-67
2021/10/11 11:07:41;;;;;;;8.95;5.10;;;;;;;23.54;44.58;94835.63;5004680;28;20053;-67
2021/10/11 11:10:11;;;;;;;8.15;4.35;;;;;;;23.54;44.96;94827.44;4987880;28;20025;-66
2021/10/11 11:12:37;;;;;;;11.23;4.80;;;;;;;23.52;44.74;94822.50;5004739;28;20469;-66
2021/10/11 11:15:08;;;;;;;10.70;4.90;;;;;;;23.50;45.32;94827.03;5003327;28;20041;-66
2021/10/11 11:17:34;;;;;;;8.65;5.00;;;;;;;23.51;45.23;94820.31;5003941;28;20192;-67
2021/10/11 11:20:00;;;;;;;9.15;4.65;;;;;;;23.49;45.01;94811.91;5005187;28;20040;-67
2021/10/11 11:22:35;;;;;;;9.63;4.95;;;;;;;23.49;45.55;94811.91;4986606;28;20030;-65
2021/10/11 11:25:02;;;;;;;9.18;4.82;;;;;;;23.52;45.05;94816.34;5005338;28;20061;-68
2021/10/11 11:27:34;;;;;;;7.18;4.47;;;;;;;23.53;45.47;94828.72;5004665;28;20018;-67
2021/10/11 11:30:05;;;;;;;8.77;4.75;;;;;;;23.52;45.50;94821.78;5005552;28;20104;-67